Arcata, CA (95518)

12:08 AM PDT on July 30, 2016 (GMT -0700)
APRSWXNET | | Change Station

Elev 5 ft 40.86 °N, 124.09 °W | Updated 20 minutes ago

Overcast
Overcast
56 °F
Feels Like 56 °F
N
5
Wind Variable Wind from SW
Gusts 7.0 mph

Today
High -- | Low -- °F
--% Chance of Precip.
Yesterday
High -- | Low -- °F
Precip. -- in
Pressure 29.83 in
Visibility 6.0 miles
Clouds Overcast 300 ft
Dew Point 55 °F
Humidity 96%
Rainfall in
Snow Depth Not available.
6:11 AM 8:33 PM
Waning Crescent, 15% visible
METAR KACV 300653Z AUTO 16004KT 6SM BR OVC003 13/12 A2982 RMK AO2 SLP101 T01330122
Pressure 29.83 in
Visibility 6.0 miles
Clouds Overcast 300 ft
Dew Point 55 °F
Humidity 96%
Rainfall in
Snow Depth Not available.
6:11 AM 8:33 PM
Waning Crescent, 15% visible
METAR KACV 300653Z AUTO 16004KT 6SM BR OVC003 13/12 A2982 RMK AO2 SLP101 T01330122

10-Day Weather Forecast

Almanac

Astronomy

Jul. 30, 2016 Rise Set
Actual Time
Civil Twilight
Nautical Twilight
Astronomical Twilight
Moon
Length of Visible Light
Length of Day
Tomorrow will be .
, % of the Moon is Illuminated

Today's Extremes

State Highs State Lows

Community

WunderPhotos

Upload Photos

1,928,508 photos uploaded!

WunderBlog® & News

Nearby

Air Quality

  Air Quality AQ Index Pollutant
Not available.

Snow Depth

Station Depth Elevation

Earthquake Activity

City Distance Mag. Time & Date
Minimum magnitude displayed is 2.5.

Coastal Water Temperatures

Place Temperature

Stations

Nearby Weather Stations

Station Location Temp. Windchill Dew Point Humidity Wind Precip. Elev Updated Type
                   

Watches & Warnings

There are currently no watches in effect.